createdAt,value
2023-05-05T00:01:34.348Z,9.09
2023-05-05T00:04:37.075Z,9.13
2023-05-05T00:07:39.800Z,9.10
2023-05-05T00:10:45.787Z,9.06
2023-05-05T00:13:48.575Z,9.02
2023-05-05T00:16:51.381Z,8.97
2023-05-05T00:19:54.206Z,8.89
2023-05-05T00:22:57.029Z,8.82
2023-05-05T00:25:59.786Z,8.77
2023-05-05T00:29:02.590Z,8.74
2023-05-05T00:32:05.449Z,8.73
2023-05-05T00:35:08.919Z,8.75
2023-05-05T00:38:11.689Z,8.78
2023-05-05T00:41:14.530Z,8.82
2023-05-05T00:44:17.263Z,8.82
2023-05-05T00:47:20.399Z,8.81
2023-05-05T00:50:26.806Z,8.83
2023-05-05T00:53:29.856Z,8.79
2023-05-05T00:56:33.287Z,8.76
2023-05-05T00:59:37.461Z,8.71
2023-05-05T01:02:41.440Z,8.69
2023-05-05T01:06:04.648Z,8.65
2023-05-05T01:09:20.564Z,8.65
2023-05-05T01:12:44.785Z,8.63
2023-05-05T01:15:53.515Z,8.59
2023-05-05T01:19:24.407Z,8.56
2023-05-05T01:22:52.668Z,8.50
2023-05-05T01:26:11.903Z,8.49
2023-05-05T01:29:52.633Z,8.48
2023-05-05T01:33:01.280Z,8.50
2023-05-05T01:36:10.653Z,8.48
2023-05-05T01:39:16.852Z,8.45
2023-05-05T01:42:22.692Z,8.45
2023-05-05T01:45:32.205Z,8.43
2023-05-05T01:48:37.002Z,8.38
2023-05-05T01:51:41.464Z,8.34
2023-05-05T01:54:46.633Z,8.33
2023-05-05T01:57:50.850Z,8.30
2023-05-05T02:00:56.733Z,8.25
2023-05-05T02:04:02.302Z,8.20
2023-05-05T02:07:06.291Z,8.19
2023-05-05T02:10:12.358Z,8.18
2023-05-05T02:13:17.448Z,8.10
2023-05-05T02:16:22.120Z,8.07
2023-05-05T02:19:30.988Z,8.05
2023-05-05T02:22:34.178Z,7.99
2023-05-05T02:25:44.198Z,7.98
2023-05-05T02:28:52.844Z,7.97
2023-05-05T02:32:02.511Z,7.93
2023-05-05T02:35:14.308Z,7.88
2023-05-05T02:38:19.563Z,7.87
2023-05-05T02:41:27.590Z,7.88
2023-05-05T02:44:33.145Z,7.85
2023-05-05T02:47:37.273Z,7.77
2023-05-05T02:50:41.389Z,7.68
2023-05-05T02:53:56.360Z,7.63
2023-05-05T02:57:00.592Z,7.61
2023-05-05T03:00:24.115Z,7.57
2023-05-05T03:03:55.995Z,7.55
2023-05-05T03:07:06.956Z,7.52
2023-05-05T03:10:17.734Z,7.47
2023-05-05T03:13:26.951Z,7.42
2023-05-05T03:16:32.176Z,7.43
2023-05-05T03:19:36.327Z,7.44
2023-05-05T03:22:39.360Z,7.44
2023-05-05T03:25:45.037Z,7.42
2023-05-05T03:28:52.672Z,7.42
2023-05-05T03:32:01.553Z,7.47
2023-05-05T03:35:05.508Z,7.50
2023-05-05T03:38:09.212Z,7.55
2023-05-05T03:41:12.017Z,7.57
2023-05-05T03:44:14.801Z,7.63
2023-05-05T03:47:17.654Z,7.71
2023-05-05T03:50:21.080Z,7.78
2023-05-05T03:53:24.730Z,7.84
2023-05-05T03:56:27.609Z,7.88
2023-05-05T03:59:30.409Z,7.92
2023-05-05T04:02:33.351Z,7.95
2023-05-05T04:05:38.063Z,7.96
2023-05-05T04:08:41.433Z,7.98
2023-05-05T04:11:44.232Z,8.01
2023-05-05T04:14:47.785Z,8.04
2023-05-05T04:17:50.898Z,8.07
2023-05-05T04:20:53.995Z,8.08
2023-05-05T04:23:58.496Z,8.12
2023-05-05T04:27:02.415Z,8.17
2023-05-05T04:30:06.902Z,8.21
2023-05-05T04:33:10.832Z,8.24
2023-05-05T04:36:13.788Z,8.29
2023-05-05T04:39:17.510Z,8.34
2023-05-05T04:42:20.388Z,8.39
2023-05-05T04:45:23.231Z,8.45
2023-05-05T04:48:26.210Z,8.52
2023-05-05T04:51:29.275Z,8.57
2023-05-05T04:54:36.415Z,8.62
2023-05-05T04:57:39.293Z,8.70
2023-05-05T05:00:42.380Z,8.74
2023-05-05T05:03:45.292Z,8.81
2023-05-05T05:06:48.407Z,8.92
2023-05-05T05:09:51.600Z,9.05
2023-05-05T05:12:54.513Z,9.17
2023-05-05T05:15:57.526Z,9.28
2023-05-05T05:19:01.638Z,9.38
2023-05-05T05:22:06.146Z,9.53
2023-05-05T05:25:10.490Z,9.68
2023-05-05T05:28:13.308Z,9.81
2023-05-05T05:31:21.129Z,9.95
2023-05-05T05:34:24.219Z,10.14
2023-05-05T05:37:31.143Z,10.35
2023-05-05T05:40:34.703Z,10.59
2023-05-05T05:43:38.085Z,10.83
2023-05-05T05:46:41.258Z,11.06
2023-05-05T05:49:44.190Z,11.28
2023-05-05T05:52:47.492Z,11.49
2023-05-05T05:55:51.320Z,11.70
2023-05-05T05:58:54.144Z,11.91
2023-05-05T06:01:57.328Z,12.12
2023-05-05T06:05:00.721Z,12.33
2023-05-05T06:08:03.861Z,12.52
2023-05-05T06:11:08.118Z,12.68
2023-05-05T06:14:10.962Z,12.83
2023-05-05T06:17:14.269Z,13.02
2023-05-05T06:20:17.368Z,13.26
2023-05-05T06:23:20.185Z,13.51
2023-05-05T06:26:27.584Z,13.85
2023-05-05T06:29:30.329Z,14.16
2023-05-05T06:32:33.267Z,14.38
2023-05-05T06:35:36.195Z,14.55
2023-05-05T06:38:38.895Z,14.70
2023-05-05T06:41:41.870Z,14.83
2023-05-05T06:44:44.597Z,14.92
2023-05-05T06:47:47.420Z,15.05
2023-05-05T06:50:50.332Z,15.20
2023-05-05T06:53:53.039Z,15.33
2023-05-05T06:56:57.525Z,15.44
2023-05-05T07:00:19.769Z,15.54
2023-05-05T07:03:22.563Z,15.70
2023-05-05T07:06:25.351Z,15.85
2023-05-05T07:09:28.123Z,16.02
2023-05-05T07:12:31.331Z,16.19
2023-05-05T07:15:34.643Z,16.28
2023-05-05T07:18:37.488Z,16.32
2023-05-05T07:21:40.210Z,16.45
2023-05-05T07:24:42.917Z,16.60
2023-05-05T07:27:45.866Z,16.68
2023-05-05T07:30:48.686Z,16.86
2023-05-05T07:33:51.734Z,17.01
2023-05-05T07:36:56.439Z,17.03
2023-05-05T07:39:59.150Z,17.11
2023-05-05T07:43:02.027Z,17.21
2023-05-05T07:46:04.872Z,17.36
2023-05-05T07:49:07.765Z,17.44
2023-05-05T07:52:10.636Z,17.47
2023-05-05T07:55:13.432Z,17.47
2023-05-05T07:58:16.325Z,17.53
2023-05-05T08:01:19.314Z,17.66
2023-05-05T08:04:22.150Z,17.85
2023-05-05T08:07:25.024Z,18.17
2023-05-05T08:10:27.838Z,18.51
2023-05-05T08:13:31.125Z,18.58
2023-05-05T08:16:34.486Z,18.71
2023-05-05T08:19:37.459Z,19.17
2023-05-05T08:22:42.036Z,19.47
2023-05-05T08:25:44.794Z,19.57
2023-05-05T08:28:48.694Z,19.45
2023-05-05T08:31:51.524Z,19.39
2023-05-05T08:34:54.463Z,19.49
2023-05-05T08:37:59.099Z,19.62
2023-05-05T08:41:02.149Z,19.81
2023-05-05T08:44:05.044Z,19.99
2023-05-05T08:47:11.198Z,20.10
2023-05-05T08:50:14.148Z,20.01
2023-05-05T08:53:21.937Z,20.12
2023-05-05T08:56:33.136Z,20.17
2023-05-05T08:59:37.287Z,19.99
2023-05-05T09:02:42.887Z,20.08
2023-05-05T09:05:45.897Z,20.25
2023-05-05T09:08:49.644Z,20.44
2023-05-05T09:11:53.877Z,20.56
2023-05-05T09:14:58.981Z,20.87
2023-05-05T09:18:02.462Z,21.26
2023-05-05T09:21:25.993Z,21.45
2023-05-05T09:24:28.895Z,21.71
2023-05-05T09:27:36.472Z,21.92
2023-05-05T09:30:41.181Z,22.20
2023-05-05T09:33:44.235Z,22.30
2023-05-05T09:36:48.931Z,22.29
2023-05-05T09:39:56.201Z,22.49
2023-05-05T09:43:02.963Z,22.79
2023-05-05T09:46:07.723Z,23.03
2023-05-05T09:49:23.401Z,23.40
2023-05-05T09:52:26.848Z,23.56
2023-05-05T09:55:33.375Z,23.61
2023-05-05T09:58:36.527Z,23.83
2023-05-05T10:01:39.533Z,23.95
2023-05-05T10:04:43.846Z,23.75
2023-05-05T10:07:48.106Z,23.77
2023-05-05T10:11:00.576Z,23.90
2023-05-05T10:14:06.520Z,24.00
2023-05-05T10:17:10.135Z,24.11
2023-05-05T10:20:14.433Z,23.96
2023-05-05T10:23:20.806Z,23.72
2023-05-05T10:26:26.733Z,23.47
2023-05-05T10:29:52.873Z,23.25
2023-05-05T10:33:26.721Z,23.34
2023-05-05T10:36:27.932Z,23.46
2023-05-05T10:39:31.531Z,23.45
2023-05-05T10:42:37.371Z,23.37
2023-05-05T10:45:41.512Z,23.17
2023-05-05T10:48:56.603Z,22.89
2023-05-05T10:52:12.716Z,22.70
2023-05-05T10:55:31.876Z,22.60
2023-05-05T10:58:58.339Z,22.21
2023-05-05T11:02:18.209Z,21.90
2023-05-05T11:05:23.799Z,21.54
2023-05-05T11:08:27.174Z,21.01
2023-05-05T11:12:02.956Z,20.58
2023-05-05T11:15:24.251Z,19.84
2023-05-05T11:18:43.305Z,19.36
2023-05-05T11:22:02.285Z,18.96
2023-05-05T11:25:37.528Z,18.73
2023-05-05T11:29:02.218Z,18.57
2023-05-05T11:32:15.886Z,18.54
2023-05-05T11:35:18.983Z,18.49
2023-05-05T11:38:44.675Z,18.63
2023-05-05T11:42:22.556Z,18.70
2023-05-05T11:45:25.793Z,18.78
2023-05-05T11:48:28.585Z,18.81
2023-05-05T11:51:31.881Z,18.83
2023-05-05T11:54:36.747Z,18.88
2023-05-05T11:57:39.565Z,18.85
2023-05-05T12:00:42.340Z,18.75
2023-05-05T12:03:46.005Z,18.66
2023-05-05T12:06:49.378Z,18.68
2023-05-05T12:09:52.978Z,18.51
2023-05-05T12:12:56.100Z,18.28
2023-05-05T12:16:16.537Z,18.23
2023-05-05T12:19:19.302Z,18.29
2023-05-05T12:22:26.464Z,18.47
2023-05-05T12:25:36.995Z,18.59
2023-05-05T12:28:46.482Z,18.76
2023-05-05T12:31:49.504Z,18.88
2023-05-05T12:34:54.880Z,18.74
2023-05-05T12:37:58.584Z,18.62
2023-05-05T12:41:02.526Z,18.53
2023-05-05T12:44:05.435Z,18.51
2023-05-05T12:47:08.718Z,18.36
2023-05-05T12:50:11.552Z,18.11
2023-05-05T12:53:24.899Z,17.82
2023-05-05T12:56:34.911Z,17.49
2023-05-05T12:59:37.697Z,17.27
2023-05-05T13:02:40.657Z,17.03
2023-05-05T13:05:43.743Z,16.90
2023-05-05T13:08:46.720Z,16.84
2023-05-05T13:11:49.496Z,16.95
2023-05-05T13:14:52.212Z,17.02
2023-05-05T13:18:01.704Z,17.10
2023-05-05T13:21:04.770Z,17.15
2023-05-05T13:24:25.325Z,17.30
2023-05-05T13:27:30.629Z,17.47
2023-05-05T13:30:33.504Z,17.60
2023-05-05T13:33:36.264Z,17.61
2023-05-05T13:36:39.029Z,17.55
2023-05-05T13:39:41.832Z,17.54
2023-05-05T13:42:44.618Z,17.57
2023-05-05T13:45:47.372Z,17.52
2023-05-05T13:48:52.498Z,17.45
2023-05-05T13:51:59.159Z,17.48
2023-05-05T13:55:01.874Z,17.50
2023-05-05T13:58:04.719Z,17.59
2023-05-05T14:01:07.487Z,17.63
2023-05-05T14:04:10.594Z,17.49
2023-05-05T14:07:13.435Z,17.50
2023-05-05T14:10:16.217Z,17.54
2023-05-05T14:13:19.206Z,17.43
2023-05-05T14:16:22.117Z,17.35
2023-05-05T14:19:25.061Z,17.40
2023-05-05T14:22:27.804Z,17.40
2023-05-05T14:25:30.503Z,17.35
2023-05-05T14:28:33.305Z,17.34
2023-05-05T14:31:36.839Z,17.20
2023-05-05T14:34:39.794Z,17.02
2023-05-05T14:37:42.568Z,16.88
2023-05-05T14:40:45.389Z,16.76
2023-05-05T14:43:48.083Z,16.58
2023-05-05T14:46:51.347Z,16.40
2023-05-05T14:49:54.210Z,16.22
2023-05-05T14:52:56.992Z,16.08
2023-05-05T14:56:01.080Z,16.01
2023-05-05T14:59:03.813Z,15.96
2023-05-05T15:02:07.245Z,15.94
2023-05-05T15:05:10.387Z,15.88
2023-05-05T15:08:14.600Z,15.81
2023-05-05T15:11:17.363Z,15.78
2023-05-05T15:14:20.160Z,15.79
2023-05-05T15:17:23.008Z,15.79
2023-05-05T15:20:25.844Z,15.78
2023-05-05T15:23:28.601Z,15.74
2023-05-05T15:26:31.963Z,15.72
2023-05-05T15:29:34.853Z,15.69
2023-05-05T15:32:37.993Z,15.65
2023-05-05T15:35:40.711Z,15.60
2023-05-05T15:38:43.623Z,15.51
2023-05-05T15:41:46.383Z,15.47
2023-05-05T15:44:49.164Z,15.43
2023-05-05T15:47:52.972Z,15.36
2023-05-05T15:50:55.918Z,15.33
2023-05-05T15:53:59.543Z,15.32
2023-05-05T15:57:03.219Z,15.32
2023-05-05T16:00:07.979Z,15.31
2023-05-05T16:03:10.782Z,15.31
2023-05-05T16:06:13.828Z,15.29
2023-05-05T16:09:16.607Z,15.20
2023-05-05T16:12:20.989Z,15.07
2023-05-05T16:15:23.772Z,14.99
2023-05-05T16:18:26.837Z,14.93
2023-05-05T16:21:29.561Z,14.86
2023-05-05T16:24:32.472Z,14.81
2023-05-05T16:27:35.549Z,14.75
2023-05-05T16:30:39.837Z,14.67
2023-05-05T16:33:43.836Z,14.59
2023-05-05T16:36:46.982Z,14.51
2023-05-05T16:39:49.685Z,14.44
2023-05-05T16:42:52.401Z,14.36
2023-05-05T16:45:55.173Z,14.26
2023-05-05T16:48:57.953Z,14.15
2023-05-05T16:52:00.820Z,14.02
2023-05-05T16:55:04.916Z,13.92
2023-05-05T16:58:08.030Z,13.82
2023-05-05T17:01:10.767Z,13.74
2023-05-05T17:04:13.634Z,13.65
2023-05-05T17:07:16.395Z,13.52
2023-05-05T17:10:19.201Z,13.44
2023-05-05T17:13:23.509Z,13.36
2023-05-05T17:16:26.386Z,13.28
2023-05-05T17:19:29.240Z,13.21
2023-05-05T17:22:32.246Z,13.11
2023-05-05T17:25:35.937Z,13.01
2023-05-05T17:28:38.708Z,12.94
2023-05-05T17:31:42.117Z,12.87
2023-05-05T17:34:45.017Z,12.81
2023-05-05T17:37:47.894Z,12.74
2023-05-05T17:40:50.784Z,12.63
2023-05-05T17:43:53.549Z,12.52
2023-05-05T17:46:56.327Z,12.46
2023-05-05T17:49:59.550Z,12.36
2023-05-05T17:53:02.288Z,12.26
2023-05-05T17:56:07.959Z,12.18
2023-05-05T17:59:11.637Z,12.06
2023-05-05T18:02:14.422Z,11.98
2023-05-05T18:05:17.366Z,11.92
2023-05-05T18:08:20.157Z,11.84
2023-05-05T18:11:27.654Z,11.77
2023-05-05T18:14:31.719Z,11.70
2023-05-05T18:17:34.604Z,11.65
2023-05-05T18:20:37.472Z,11.59
2023-05-05T18:23:40.617Z,11.54
2023-05-05T18:26:43.496Z,11.50
2023-05-05T18:29:46.275Z,11.45
2023-05-05T18:32:49.116Z,11.39
2023-05-05T18:35:51.968Z,11.34
2023-05-05T18:38:54.773Z,11.30
2023-05-05T18:41:57.515Z,11.26
2023-05-05T18:45:00.258Z,11.22
2023-05-05T18:48:03.275Z,11.19
2023-05-05T18:51:07.556Z,11.14
2023-05-05T18:54:10.328Z,11.09
2023-05-05T18:57:13.060Z,11.03
2023-05-05T19:00:15.918Z,10.97
2023-05-05T19:03:19.736Z,10.91
2023-05-05T19:06:22.555Z,10.86
2023-05-05T19:09:25.513Z,10.81
2023-05-05T19:12:28.233Z,10.77
2023-05-05T19:15:32.459Z,10.71
2023-05-05T19:18:35.232Z,10.65
2023-05-05T19:21:38.638Z,10.56
2023-05-05T19:24:41.345Z,10.53
2023-05-05T19:27:44.380Z,10.50
2023-05-05T19:30:48.710Z,10.45
2023-05-05T19:33:51.653Z,10.40
2023-05-05T19:36:54.396Z,10.34
2023-05-05T19:39:57.285Z,10.27
2023-05-05T19:42:59.999Z,10.22
2023-05-05T19:46:02.947Z,10.19
2023-05-05T19:49:06.257Z,10.16
2023-05-05T19:52:09.051Z,10.15
2023-05-05T19:55:13.253Z,10.16
2023-05-05T19:58:16.131Z,10.15
2023-05-05T20:01:18.900Z,10.14
2023-05-05T20:04:21.682Z,10.14
2023-05-05T20:07:24.444Z,10.12
2023-05-05T20:10:27.167Z,10.09
2023-05-05T20:13:29.929Z,10.08
2023-05-05T20:16:33.703Z,10.08
2023-05-05T20:19:36.520Z,10.08
2023-05-05T20:22:40.605Z,10.06
2023-05-05T20:25:43.778Z,10.05
2023-05-05T20:28:46.550Z,10.06
2023-05-05T20:31:49.475Z,10.06
2023-05-05T20:34:52.395Z,10.03
2023-05-05T20:37:55.278Z,10.01
2023-05-05T20:40:58.151Z,10.00
2023-05-05T20:44:01.028Z,9.97
2023-05-05T20:47:04.582Z,9.92
2023-05-05T20:50:08.570Z,9.88
2023-05-05T20:53:15.399Z,9.83
2023-05-05T20:56:18.110Z,9.78
2023-05-05T20:59:20.860Z,9.76
2023-05-05T21:02:23.680Z,9.75
2023-05-05T21:05:26.798Z,9.72
2023-05-05T21:08:30.707Z,9.68
2023-05-05T21:11:33.458Z,9.67
2023-05-05T21:14:36.222Z,9.63
2023-05-05T21:17:39.014Z,9.59
2023-05-05T21:20:41.798Z,9.54
2023-05-05T21:23:47.883Z,9.50
2023-05-05T21:26:50.689Z,9.44
2023-05-05T21:29:53.432Z,9.37
2023-05-05T21:32:56.252Z,9.30
2023-05-05T21:35:59.178Z,9.25
2023-05-05T21:39:02.081Z,9.23
2023-05-05T21:42:04.813Z,9.19
2023-05-05T21:45:08.284Z,9.17
2023-05-05T21:48:11.081Z,9.13
2023-05-05T21:51:13.807Z,9.08
2023-05-05T21:54:16.972Z,9.06
2023-05-05T21:57:19.783Z,9.01
2023-05-05T22:00:22.762Z,8.94
2023-05-05T22:03:26.286Z,8.86
2023-05-05T22:06:29.124Z,8.82
2023-05-05T22:09:31.989Z,8.81
2023-05-05T22:12:34.778Z,8.76
2023-05-05T22:15:46.092Z,8.70
2023-05-05T22:18:50.424Z,8.65
2023-05-05T22:21:53.426Z,8.59
2023-05-05T22:24:56.192Z,8.55
2023-05-05T22:27:59.027Z,8.52
2023-05-05T22:31:01.976Z,8.49
2023-05-05T22:34:04.892Z,8.43
2023-05-05T22:37:07.657Z,8.42
2023-05-05T22:40:13.001Z,8.38
2023-05-05T22:43:15.874Z,8.36
2023-05-05T22:46:18.697Z,8.31
2023-05-05T22:49:22.755Z,8.27
2023-05-05T22:52:28.212Z,8.21
2023-05-05T22:55:30.939Z,8.15
2023-05-05T22:58:33.755Z,8.11
2023-05-05T23:01:36.701Z,8.06
2023-05-05T23:04:39.530Z,8.05
2023-05-05T23:07:42.350Z,8.04
2023-05-05T23:10:45.097Z,8.02
2023-05-05T23:13:47.885Z,7.98
2023-05-05T23:16:50.892Z,7.93
2023-05-05T23:19:53.676Z,7.87
2023-05-05T23:22:56.467Z,7.83
2023-05-05T23:25:59.253Z,7.79
2023-05-05T23:29:01.970Z,7.74
2023-05-05T23:32:05.565Z,7.72
2023-05-05T23:35:09.137Z,7.69
2023-05-05T23:38:12.179Z,7.70
2023-05-05T23:41:14.947Z,7.67
2023-05-05T23:44:17.735Z,7.64
2023-05-05T23:47:20.473Z,7.60
2023-05-05T23:50:23.310Z,7.56
2023-05-05T23:53:26.088Z,7.53
2023-05-05T23:56:28.832Z,7.51
2023-05-05T23:59:31.644Z,7.46
